INFORMACIÓN METAR y TAF
METAR FOR EFRO
ADDS - METARS form results

(0330 UTC 23 January 2019)
Data provider http://aviationweather.gov/metar/data/
 
METAR text: EFRO 230320Z AUTO 32009KT CAVOK M18/M20 Q1005
Conditions at: EFRO (ROVANIEMI (CIV/M, FI) observed 0320 UTC 23 January 2019
Temperature: -18.0°C (-0°F)
Dewpoint: -20.0°C (-4°F) [RH = 84%]
Pressure (altimeter): 29.68 inches Hg (1005.0 mb)
Winds: from the NW (320 degrees) at 10 MPH (9 knots; 4.6 m/s)
Visibility: 6 or more miles (10+ km)
Ceiling: ceiling and visibility are OK
Clouds: unknown
Weather: no significant weather observed at this time

METAR text: EFRO 230250Z AUTO 31010KT CAVOK M18/M20 Q1005
Conditions at: EFRO (ROVANIEMI (CIV/M, FI) observed 0250 UTC 23 January 2019
Temperature: -18.0°C (-0°F)
Dewpoint: -20.0°C (-4°F) [RH = 84%]
Pressure (altimeter): 29.68 inches Hg (1005.0 mb)
Winds: from the NW (310 degrees) at 12 MPH (10 knots; 5.1 m/s)
Visibility: 6 or more miles (10+ km)
Ceiling: ceiling and visibility are OK
Clouds: unknown
Weather: no significant weather observed at this time

Forecast for: EFRO (ROVANIEMI (CIV/M, FI)
Text: TAF EFRO 230235Z 2303/2403 33008KT 9999 SCT030
Forecast period: 0300 UTC 23 January 2019 to 0300 UTC 24 January 2019
Forecast type: FROM: standard forecast or significant change
Winds: from the NNW (330 degrees) at 9 MPH (8 knots; 4.1 m/s)
Visibility: 6 or more miles 10+ km)
Ceiling: at least 12,000 feet AGL
Clouds: scattered clouds at 3000 feet AGL
Weather: no significant weather forecast for this period
Text: TEMPO 2303/2314 2000 -SN BKN013
Forecast period: 0300 to 1400 UTC 23 January 2019
Forecast type: TEMPORARY: The following changes expected for less than half the time period
Visibility: 1.24 miles (2.00 km)
Ceiling: 1300 feet AGL
Clouds: broken clouds at 1300 feet AGL
Weather: -SN  (light snow)

 MAPA DE AEROPUERTO

 INFORMACIÓN DE PISTA
Pista 03 Longitud 9849 ft Ancho 197 ft
Elevación 633 ft Umbral desplazado 0 ft Rumbo de pista 37
Pista 21 Longitud 9849 ft Ancho 197 ft
Elevación 609 ft Umbral desplazado 0 ft Rumbo de pista 217

 FRECUANCIAS DEL AEROPUERTO
Tipo APP Nombre APP Frecuencia 125.8 MHZ
Tipo ATIS Nombre ATIS Frecuencia 117.7 MHZ
Tipo GND Nombre GND Frecuencia 118.525 MHZ
Tipo PMSV Nombre PMSV METRO Frecuencia 125.1 MHZ
Tipo TWR Nombre TWR Frecuencia 118.7 MHZ

 RADIO AYUDAS DEL AEROPUERTO
Tipo NDB Nombre Papa-Alfa Frecuencia 377 KHZ
Tipo VOR-DME Nombre Rovani Frecuencia 117700 KHZ
Tipo NDB Nombre Toramo Frecuencia 416 KHZ



              


PayPal

©2019 Oasis Virtual Airlines
Simulando desde el 2013

Oasis Líneas Aéreas Virtuales no está relacionada con ninguna compañía real.
Se trata de un entorno virtual de simulación aérea, sin ánimo de lucro.


Visitas: 33582

VAM v2.6.2 [MOD.]